Time;durP1;ratioP1;P1;durP2;ratioP2;P2;SDS_P1;SDS_P2;PMS_P1;PMS_P2;Temp;Humidity;BMP_temperature;BMP_pressure;BME280_temperature;BME280_humidity;BME280_pressure;Samples;Min_cycle;Max_cycle;Signal;HPM_P1;HPM_P2
2023/12/20 00:02:02;;;;;;;22.40;12.40;;;;;;;4.97;97.31;99382.35;79920;1295;3011868;-76
2023/12/20 00:04:30;;;;;;;21.50;12.00;;;;;;;4.79;98.11;99380.98;78582;1292;3051002;-70
2023/12/20 00:06:57;;;;;;;15.10;10.00;;;;;;;4.66;98.82;99376.23;79954;1292;3012800;-66
2023/12/20 00:09:23;;;;;;;18.60;11.50;;;;;;;4.93;98.72;99383.38;79808;1291;3011811;-75
2023/12/20 00:11:51;;;;;;;16.10;10.60;;;;;;;5.25;96.13;99385.59;78515;1295;3024901;-69
2023/12/20 00:14:18;;;;;;;21.20;11.70;;;;;;;5.07;96.25;99383.36;79784;1292;3013444;-68
2023/12/20 00:16:45;;;;;;;20.00;12.30;;;;;;;4.80;97.56;99380.94;79869;1295;3013256;-68
2023/12/20 00:19:13;;;;;;;19.30;11.00;;;;;;;4.61;98.42;99380.07;78654;1292;3026299;-68
2023/12/20 00:21:39;;;;;;;16.70;8.60;;;;;;;4.59;99.38;99373.92;79884;1292;3013062;-71
2023/12/20 00:24:06;;;;;;;18.60;11.70;;;;;;;5.40;97.47;99368.83;79812;1292;3013258;-73
2023/12/20 00:26:34;;;;;;;18.40;10.50;;;;;;;5.47;94.35;99382.47;78543;1292;3025916;-71
2023/12/20 00:29:00;;;;;;;17.90;11.20;;;;;;;5.19;94.96;99371.92;79893;1294;3019034;-66
2023/12/20 00:31:27;;;;;;;19.30;12.00;;;;;;;5.15;95.47;99364.63;79862;1292;3011632;-67
2023/12/20 00:33:56;;;;;;;18.10;11.40;;;;;;;4.75;97.26;99365.15;78542;1290;3025766;-73
2023/12/20 00:36:23;;;;;;;17.60;9.70;;;;;;;4.75;98.70;99361.33;79990;1292;3011794;-70
2023/12/20 00:38:51;;;;;;;16.40;10.10;;;;;;;5.18;97.02;99366.77;79900;1292;3011887;-73
2023/12/20 00:41:19;;;;;;;17.60;9.40;;;;;;;5.24;96.27;99362.90;78594;1291;3050010;-71
2023/12/20 00:43:45;;;;;;;19.50;11.30;;;;;;;5.19;95.76;99356.84;79821;1294;3012996;-71
2023/12/20 00:46:12;;;;;;;18.70;12.10;;;;;;;5.18;95.88;99351.14;79789;1290;3011504;-70
2023/12/20 00:48:42;;;;;;;21.00;12.00;;;;;;;4.85;96.41;99361.82;78627;1291;3027060;-70
2023/12/20 00:51:08;;;;;;;16.30;10.10;;;;;;;4.54;98.85;99346.66;79858;1292;3011470;-70
2023/12/20 00:53:35;;;;;;;14.40;8.80;;;;;;;4.80;99.26;99350.20;79908;1292;3012153;-70
2023/12/20 00:56:03;;;;;;;20.80;11.20;;;;;;;4.84;97.93;99335.98;78550;1294;3050864;-75
2023/12/20 00:58:30;;;;;;;20.50;11.80;;;;;;;4.84;98.18;99340.85;79899;1294;3013612;-69
2023/12/20 01:00:58;;;;;;;21.20;11.50;;;;;;;4.57;98.66;99346.22;79926;1294;3011660;-70
2023/12/20 01:03:26;;;;;;;18.10;10.90;;;;;;;4.41;99.83;99341.96;78679;1291;3051216;-67
2023/12/20 01:05:52;;;;;;;16.90;10.80;;;;;;;4.39;100.00;99341.33;79758;1291;3012661;-70
2023/12/20 01:08:19;;;;;;;17.70;10.50;;;;;;;4.67;99.95;99337.54;79668;1291;3011838;-71
2023/12/20 01:10:47;;;;;;;19.50;11.40;;;;;;;4.92;98.33;99344.35;78536;1292;3026148;-69
2023/12/20 01:13:14;;;;;;;20.20;12.60;;;;;;;4.69;98.57;99349.24;79908;1295;3013333;-70
2023/12/20 01:15:40;;;;;;;20.70;11.30;;;;;;;4.51;99.54;99342.45;79880;1291;3013279;-69
2023/12/20 01:18:09;;;;;;;17.70;10.80;;;;;;;4.55;99.68;99342.65;78544;1294;3051659;-67
2023/12/20 01:20:36;;;;;;;20.50;10.40;;;;;;;4.55;100.00;99351.50;79832;1291;3012946;-70
2023/12/20 01:23:02;;;;;;;20.90;11.70;;;;;;;5.05;99.17;99353.77;79696;1292;3011543;-69
2023/12/20 01:25:31;;;;;;;21.40;11.10;;;;;;;5.06;97.77;99354.92;78676;1294;3027504;-65
2023/12/20 01:27:58;;;;;;;18.30;10.50;;;;;;;5.07;97.32;99354.04;79816;1294;3018521;-71
2023/12/20 01:30:24;;;;;;;21.30;11.60;;;;;;;4.79;97.62;99352.33;79869;1292;3011881;-70
2023/12/20 01:32:52;;;;;;;16.30;10.60;;;;;;;4.42;99.61;99357.38;78687;1292;3025948;-70
2023/12/20 01:35:19;;;;;;;21.50;10.80;;;;;;;4.86;99.28;99352.92;79915;1291;3018514;-70
2023/12/20 01:37:45;;;;;;;20.30;11.50;;;;;;;5.12;97.39;99351.05;79803;1291;3013621;-73
2023/12/20 01:40:14;;;;;;;19.80;11.20;;;;;;;4.85;97.77;99351.06;78666;1292;3026965;-67
2023/12/20 01:42:41;;;;;;;18.90;11.40;;;;;;;4.76;98.31;99355.05;79884;1291;3013816;-71
2023/12/20 01:45:08;;;;;;;19.20;10.40;;;;;;;4.60;98.72;99349.95;79816;1291;3011772;-70
2023/12/20 01:47:36;;;;;;;19.30;9.90;;;;;;;4.50;99.86;99353.61;78681;1294;3051591;-70
2023/12/20 01:50:03;;;;;;;16.60;9.80;;;;;;;5.11;98.43;99352.64;79657;1292;3013273;-72
2023/12/20 01:52:30;;;;;;;19.90;11.10;;;;;;;5.22;96.76;99352.01;79823;1294;3011602;-69
2023/12/20 01:55:02;;;;;;;24.00;9.70;;;;;;;4.98;97.00;99347.92;78499;1295;3026031;-70
2023/12/20 01:57:29;;;;;;;17.30;11.40;;;;;;;4.84;97.74;99344.33;79866;1292;3011762;-71
2023/12/20 01:59:57;;;;;;;17.90;10.70;;;;;;;4.45;99.72;99338.69;78557;1292;3028600;-71
2023/12/20 02:02:24;;;;;;;21.20;11.10;;;;;;;4.53;99.85;99336.85;79802;1292;3018869;-69
2023/12/20 02:04:51;;;;;;;21.30;10.70;;;;;;;4.85;99.49;99331.95;79730;1292;3013099;-73
2023/12/20 02:07:19;;;;;;;17.10;10.60;;;;;;;4.93;98.53;99327.65;78623;1291;3026335;-67
2023/12/20 02:09:45;;;;;;;16.70;9.60;;;;;;;4.81;98.68;99335.27;79799;1292;3013306;-71
2023/12/20 02:12:12;;;;;;;24.30;10.90;;;;;;;4.75;98.63;99327.33;79577;1297;3011384;-74
2023/12/20 02:14:40;;;;;;;24.60;10.10;;;;;;;4.60;98.83;99327.02;78472;1292;3027197;-77
2023/12/20 02:17:07;;;;;;;19.50;9.80;;;;;;;4.49;100.00;99317.55;79922;1292;3021099;-70
2023/12/20 02:19:34;;;;;;;15.70;9.00;;;;;;;4.84;99.19;99319.48;79809;1295;3011693;-74
2023/12/20 02:22:21;;;;;;;16.90;10.00;;;;;;;5.13;97.32;99323.93;78651;1297;3049644;-71
2023/12/20 02:24:49;;;;;;;21.20;10.40;;;;;;;4.98;97.35;99316.86;78811;1292;3053404;-71
2023/12/20 02:27:15;;;;;;;18.50;10.40;;;;;;;4.85;97.34;99314.78;79739;1295;3013414;-73
2023/12/20 02:29:42;;;;;;;21.60;11.10;;;;;;;4.63;97.82;99324.13;79627;1296;3011909;-71
2023/12/20 02:32:10;;;;;;;24.70;9.90;;;;;;;4.69;99.39;99322.67;78605;1294;3027118;-73
2023/12/20 02:34:36;;;;;;;25.30;10.40;;;;;;;4.86;98.36;99309.55;79905;1292;3013097;-70
2023/12/20 02:37:03;;;;;;;17.10;9.90;;;;;;;4.76;97.84;99316.02;79861;1292;3011505;-69
2023/12/20 02:39:33;;;;;;;25.60;12.30;;;;;;;4.61;98.71;99300.61;78686;1294;3026344;-73
2023/12/20 02:41:59;;;;;;;33.20;11.80;;;;;;;4.46;99.19;99311.77;79995;1294;3011681;-72
2023/12/20 02:44:26;;;;;;;20.10;9.60;;;;;;;4.30;99.90;99299.37;79935;1294;3012918;-74
2023/12/20 02:46:54;;;;;;;18.80;9.60;;;;;;;4.74;99.46;99303.59;78661;1294;3068074;-68
2023/12/20 02:49:21;;;;;;;20.50;10.40;;;;;;;4.77;98.07;99296.71;79890;1291;3012834;-69
2023/12/20 02:51:47;;;;;;;21.20;10.40;;;;;;;4.78;97.84;99293.87;79912;1291;3011891;-69
2023/12/20 02:54:16;;;;;;;25.20;11.20;;;;;;;4.64;96.83;99294.08;78617;1294;3026928;-68
2023/12/20 02:56:43;;;;;;;29.00;11.90;;;;;;;4.33;98.52;99277.95;79860;1291;3013731;-68
2023/12/20 02:59:10;;;;;;;17.50;9.80;;;;;;;4.31;99.74;99280.77;79933;1294;3011645;-69
2023/12/20 03:01:44;;;;;;;20.50;10.20;;;;;;;4.93;97.65;99277.33;78622;1291;3026170;-73
2023/12/20 03:04:13;;;;;;;20.90;11.20;;;;;;;4.80;96.48;99285.64;79179;1291;3013091;-67
2023/12/20 03:06:40;;;;;;;31.20;15.10;;;;;;;4.53;97.67;99278.91;79878;1291;3013633;-67
2023/12/20 03:09:08;;;;;;;36.30;15.50;;;;;;;4.57;97.87;99290.03;79865;1292;3013323;-69
2023/12/20 03:11:36;;;;;;;36.80;15.10;;;;;;;4.51;97.86;99286.77;78683;1294;3052759;-68
2023/12/20 03:14:02;;;;;;;24.80;13.10;;;;;;;4.55;98.56;99277.24;79934;1292;3020616;-75
2023/12/20 03:16:31;;;;;;;23.10;12.20;;;;;;;5.05;96.23;99271.27;79989;1294;3012759;-69
2023/12/20 03:18:59;;;;;;;24.90;13.50;;;;;;;4.99;95.41;99273.98;78606;1294;3067665;-69
2023/12/20 03:21:25;;;;;;;28.00;14.10;;;;;;;4.84;96.44;99269.55;79838;1291;3014779;-71
2023/12/20 03:23:52;;;;;;;18.10;11.40;;;;;;;4.54;97.69;99267.75;80014;1291;3013340;-73
2023/12/20 03:26:20;;;;;;;17.10;8.90;;;;;;;4.36;99.27;99276.78;78848;1294;3025835;-68
2023/12/20 03:28:48;;;;;;;22.80;11.10;;;;;;;4.58;99.02;99274.52;79923;1295;3013115;-74
2023/12/20 03:31:15;;;;;;;20.50;11.20;;;;;;;4.90;97.70;99282.31;79671;1294;3011846;-68
2023/12/20 03:33:42;;;;;;;19.90;10.60;;;;;;;4.81;97.22;99271.38;78609;1292;3068092;-73
2023/12/20 03:36:09;;;;;;;23.50;11.80;;;;;;;4.60;98.04;99259.55;79806;1291;3019206;-66
2023/12/20 03:38:36;;;;;;;19.80;10.40;;;;;;;4.49;98.92;99270.37;79808;1292;3013545;-72
2023/12/20 03:41:04;;;;;;;16.50;10.10;;;;;;;4.40;99.90;99270.73;78453;1292;3026843;-70
2023/12/20 03:43:31;;;;;;;17.40;10.70;;;;;;;4.79;99.33;99262.77;79866;1295;3013668;-71
2023/12/20 03:45:58;;;;;;;20.10;10.50;;;;;;;5.24;96.83;99262.00;79731;1294;3011578;-71
2023/12/20 03:48:26;;;;;;;15.80;9.80;;;;;;;4.86;96.93;99271.17;78662;1294;3067797;-69
2023/12/20 03:50:53;;;;;;;18.70;10.90;;;;;;;4.68;97.82;99293.04;79706;1292;3013506;-72
2023/12/20 03:53:19;;;;;;;17.20;9.40;;;;;;;4.45;99.52;99297.60;79649;1294;3011448;-74
2023/12/20 03:55:47;;;;;;;17.00;9.40;;;;;;;4.42;100.00;99281.22;78466;1291;3027809;-71
2023/12/20 03:58:14;;;;;;;19.00;9.90;;;;;;;4.87;99.49;99286.76;79803;1295;3013533;-71
2023/12/20 04:00:41;;;;;;;19.40;9.90;;;;;;;4.82;98.37;99275.52;79884;1294;3011578;-72
2023/12/20 04:03:12;;;;;;;21.30;10.70;;;;;;;4.63;99.39;99271.60;78668;1292;3026142;-72
2023/12/20 04:05:40;;;;;;;22.40;11.20;;;;;;;4.68;99.27;99264.61;79840;1292;3013127;-75
2023/12/20 04:08:09;;;;;;;21.60;11.40;;;;;;;4.46;99.91;99278.46;78648;1292;3027160;-67
2023/12/20 04:10:37;;;;;;;33.60;15.60;;;;;;;4.77;99.83;99271.90;79898;1292;3013080;-67
2023/12/20 04:13:04;;;;;;;28.50;12.90;;;;;;;5.02;97.46;99283.39;79845;1294;3011784;-72
2023/12/20 04:15:32;;;;;;;29.60;14.00;;;;;;;4.76;97.75;99282.84;78534;1295;3053498;-66
2023/12/20 04:17:58;;;;;;;23.80;11.90;;;;;;;4.64;99.25;99276.04;79900;1294;3013341;-74
2023/12/20 04:20:25;;;;;;;22.00;10.90;;;;;;;4.49;100.00;99281.12;79878;1291;3011557;-70
2023/12/20 04:22:53;;;;;;;15.60;9.90;;;;;;;4.57;100.00;99272.52;78596;1295;3028111;-75
2023/12/20 04:25:20;;;;;;;19.50;10.30;;;;;;;4.83;99.28;99262.27;80009;1291;3013559;-69
2023/12/20 04:27:47;;;;;;;17.00;10.60;;;;;;;5.00;98.44;99259.35;79781;1293;3011953;-74
2023/12/20 04:30:15;;;;;;;17.70;11.70;;;;;;;4.74;97.77;99285.19;78553;1294;3027967;-69
2023/12/20 04:32:41;;;;;;;23.40;12.40;;;;;;;4.67;98.85;99281.63;79835;1294;3013142;-72
2023/12/20 04:35:08;;;;;;;22.80;11.90;;;;;;;4.57;99.60;99281.88;79840;1294;3011438;-70
2023/12/20 04:37:36;;;;;;;19.60;11.20;;;;;;;4.45;99.95;99281.63;78468;1297;3026022;-73
2023/12/20 04:40:05;;;;;;;16.00;8.90;;;;;;;4.95;99.57;99268.73;79901;1295;3020664;-70
2023/12/20 04:42:32;;;;;;;16.10;10.20;;;;;;;4.94;97.32;99277.30;79850;1292;3011634;-70
2023/12/20 04:45:00;;;;;;;16.90;9.50;;;;;;;4.76;98.31;99276.97;78642;1295;3053000;-73
2023/12/20 04:47:27;;;;;;;20.70;11.80;;;;;;;4.66;98.85;99278.20;79945;1294;3012956;-71
2023/12/20 04:49:53;;;;;;;32.80;15.50;;;;;;;4.60;99.05;99268.41;79863;1292;3013381;-69
2023/12/20 04:52:21;;;;;;;30.80;15.30;;;;;;;4.80;99.03;99276.11;78528;1295;3025948;-69
2023/12/20 04:54:48;;;;;;;26.50;13.40;;;;;;;4.91;97.88;99265.27;79779;1295;3013459;-68
2023/12/20 04:57:15;;;;;;;23.30;11.80;;;;;;;4.90;97.59;99263.36;79846;1292;3013250;-68
2023/12/20 04:59:43;;;;;;;20.10;11.30;;;;;;;4.64;98.36;99271.88;78680;1295;3026772;-68
2023/12/20 05:02:09;;;;;;;21.50;10.50;;;;;;;4.54;98.76;99279.73;79973;1295;3012791;-69
2023/12/20 05:04:36;;;;;;;17.30;10.40;;;;;;;4.38;99.96;99274.96;79827;1298;3011645;-70
2023/12/20 05:07:04;;;;;;;14.20;9.80;;;;;;;4.66;99.89;99289.52;78483;1295;3026706;-70
2023/12/20 05:09:31;;;;;;;26.90;11.10;;;;;;;4.89;98.60;99281.83;79837;1292;3013822;-72
2023/12/20 05:11:58;;;;;;;18.00;10.10;;;;;;;4.84;98.01;99284.09;79789;1292;3012920;-72
2023/12/20 05:14:26;;;;;;;17.70;10.20;;;;;;;4.72;98.23;99291.14;78689;1297;3051927;-73
2023/12/20 05:16:53;;;;;;;15.30;9.60;;;;;;;4.49;99.74;99293.63;79812;1292;3013343;-73
2023/12/20 05:19:20;;;;;;;17.80;10.30;;;;;;;4.62;100.00;99289.30;79746;1292;3011714;-72
2023/12/20 05:21:49;;;;;;;16.30;9.10;;;;;;;5.03;99.04;99286.80;78587;1296;3026021;-73
2023/12/20 05:24:16;;;;;;;16.60;11.30;;;;;;;4.88;98.35;99283.58;79838;1293;3013976;-71
2023/12/20 05:26:42;;;;;;;20.30;11.70;;;;;;;4.76;99.36;99282.17;79752;1296;3011645;-71
2023/12/20 05:29:10;;;;;;;21.60;13.00;;;;;;;4.75;99.82;99294.88;78690;1295;3051291;-69
2023/12/20 05:31:37;;;;;;;17.10;9.70;;;;;;;4.67;99.90;99291.36;79825;1296;3019209;-68
2023/12/20 05:34:04;;;;;;;20.20;11.00;;;;;;;4.91;99.85;99282.77;79844;1292;3011539;-71
2023/12/20 05:36:32;;;;;;;16.60;11.00;;;;;;;5.05;98.71;99278.78;78716;1296;3028995;-71
2023/12/20 05:38:58;;;;;;;20.60;11.60;;;;;;;5.03;98.53;99287.00;79757;1296;3013101;-72
2023/12/20 05:41:25;;;;;;;19.40;11.10;;;;;;;4.92;98.72;99282.05;79708;1291;3011648;-74
2023/12/20 05:43:53;;;;;;;20.60;10.80;;;;;;;4.84;99.13;99280.27;78598;1295;3026714;-68
2023/12/20 05:46:21;;;;;;;26.20;12.30;;;;;;;4.67;99.92;99290.47;80131;1292;3015015;-70
2023/12/20 05:48:48;;;;;;;20.80;12.00;;;;;;;5.02;99.61;99299.20;79869;1294;3013052;-68
2023/12/20 05:51:16;;;;;;;21.10;11.30;;;;;;;5.24;98.28;99299.17;78799;1294;3056724;-71
2023/12/20 05:53:44;;;;;;;25.40;12.80;;;;;;;5.24;97.85;99290.64;79846;1293;3013135;-77
2023/12/20 05:56:10;;;;;;;19.40;9.80;;;;;;;5.08;98.19;99289.05;79852;1293;3011724;-72
2023/12/20 05:58:39;;;;;;;24.40;13.90;;;;;;;4.96;98.59;99290.73;78565;1294;3052809;-72
2023/12/20 06:01:05;;;;;;;23.30;12.60;;;;;;;4.76;99.98;99295.38;79868;1292;3013448;-70
2023/12/20 06:03:32;;;;;;;19.90;12.00;;;;;;;5.15;99.57;99293.80;79836;1295;3011948;-71
2023/12/20 06:06:06;;;;;;;19.90;10.70;;;;;;;5.43;97.71;99294.04;78658;1295;3028420;-72
2023/12/20 06:08:36;;;;;;;18.40;11.70;;;;;;;5.39;96.87;99301.85;79535;1291;3011658;-78
2023/12/20 06:11:03;;;;;;;18.60;11.10;;;;;;;5.23;97.60;99309.80;80075;1294;3013076;-71
2023/12/20 06:13:30;;;;;;;15.70;9.80;;;;;;;5.08;98.65;99308.48;79981;1295;3011603;-74
2023/12/20 06:15:58;;;;;;;15.60;9.60;;;;;;;5.02;99.07;99300.73;78798;1296;3052901;-74
2023/12/20 06:18:25;;;;;;;21.00;10.70;;;;;;;5.34;98.77;99302.55;79882;1292;3013375;-71
2023/12/20 06:20:51;;;;;;;18.70;11.50;;;;;;;5.44;97.32;99302.32;79897;1294;3011646;-74
2023/12/20 06:23:19;;;;;;;20.30;11.40;;;;;;;5.37;97.26;99304.35;78494;1294;3028785;-75
2023/12/20 06:25:46;;;;;;;17.90;10.30;;;;;;;5.23;98.22;99301.64;79756;1292;3013211;-75
2023/12/20 06:28:14;;;;;;;21.30;10.20;;;;;;;5.05;98.85;99305.66;79973;1292;3013433;-72
2023/12/20 06:30:42;;;;;;;23.50;11.80;;;;;;;5.03;99.80;99285.42;79034;1295;3054744;-76
2023/12/20 06:33:11;;;;;;;27.10;13.20;;;;;;;5.50;98.63;99286.27;79927;1294;3012643;-76
2023/12/20 06:35:37;;;;;;;26.10;12.20;;;;;;;5.66;97.24;99294.80;79812;1293;3013263;-76
2023/12/20 06:38:05;;;;;;;28.30;14.10;;;;;;;5.68;96.60;99290.36;78663;1294;3056530;-70
2023/12/20 06:40:32;;;;;;;27.60;13.70;;;;;;;5.31;98.20;99287.77;79874;1293;3012736;-70
2023/12/20 06:42:59;;;;;;;28.90;14.60;;;;;;;5.31;98.97;99284.08;79907;1293;3012990;-67
2023/12/20 06:45:27;;;;;;;16.70;9.60;;;;;;;5.18;99.92;99297.48;78587;1294;3026301;-73
2023/12/20 06:47:54;;;;;;;48.10;17.60;;;;;;;5.45;99.76;99289.41;79790;1295;3018378;-68
2023/12/20 06:50:21;;;;;;;44.50;17.50;;;;;;;5.72;99.11;99288.63;79879;1292;3013602;-71
2023/12/20 06:52:49;;;;;;;51.30;19.40;;;;;;;5.66;98.97;99288.17;78567;1292;3026828;-69
2023/12/20 06:55:17;;;;;;;49.70;18.50;;;;;;;5.47;99.81;99284.81;79773;1293;3012964;-70
2023/12/20 06:57:44;;;;;;;32.00;13.30;;;;;;;5.51;100.00;99293.84;79784;1294;3011872;-70
2023/12/20 07:00:12;;;;;;;24.60;11.80;;;;;;;5.33;100.00;99286.98;78602;1295;3053009;-71
2023/12/20 07:02:39;;;;;;;42.70;15.50;;;;;;;5.69;100.00;99286.15;80058;1294;3013911;-71
2023/12/20 07:05:06;;;;;;;32.50;15.60;;;;;;;5.88;99.14;99284.80;79830;1293;3011314;-72
2023/12/20 07:07:34;;;;;;;19.90;11.70;;;;;;;5.73;99.26;99290.11;78637;1297;3056603;-71
2023/12/20 07:10:02;;;;;;;33.50;16.60;;;;;;;5.58;99.82;99290.25;79864;1291;3019399;-69
2023/12/20 07:12:28;;;;;;;26.90;12.90;;;;;;;5.42;100.00;99291.65;79740;1292;3011682;-70
2023/12/20 07:14:56;;;;;;;34.70;15.00;;;;;;;5.94;99.35;99288.73;78682;1295;3026802;-69
2023/12/20 07:17:23;;;;;;;38.00;14.90;;;;;;;5.94;97.76;99281.41;79915;1294;3012899;-70
2023/12/20 07:19:49;;;;;;;44.90;17.30;;;;;;;5.85;98.36;99285.27;79758;1292;3011872;-71
2023/12/20 07:22:17;;;;;;;33.10;14.60;;;;;;;5.72;98.84;99276.64;78594;1291;3026665;-69
2023/12/20 07:24:44;;;;;;;22.20;12.60;;;;;;;5.68;99.27;99278.17;79951;1292;3013234;-68
2023/12/20 07:27:11;;;;;;;23.20;11.20;;;;;;;5.64;99.69;99282.68;79796;1292;3011604;-70
2023/12/20 07:29:39;;;;;;;24.60;13.40;;;;;;;5.79;99.64;99278.41;78576;1294;3024848;-70
2023/12/20 07:32:06;;;;;;;20.90;10.90;;;;;;;5.83;99.10;99279.46;80017;1292;3018519;-70
2023/12/20 07:34:32;;;;;;;27.70;14.40;;;;;;;5.75;98.97;99272.50;79724;1295;3011874;-70
2023/12/20 07:37:00;;;;;;;22.50;10.90;;;;;;;5.71;99.22;99284.69;78498;1292;3026420;-71
2023/12/20 07:39:27;;;;;;;25.70;10.40;;;;;;;5.67;99.06;99279.27;79937;1294;3013052;-68
2023/12/20 07:41:53;;;;;;;21.20;10.90;;;;;;;5.92;98.84;99287.60;79918;1294;3012332;-71
2023/12/20 07:44:21;;;;;;;23.30;10.90;;;;;;;6.02;97.61;99279.14;79003;1294;3028295;-72
2023/12/20 07:46:48;;;;;;;24.70;13.00;;;;;;;5.92;97.81;99283.25;79939;1292;3013674;-72
2023/12/20 07:49:15;;;;;;;26.60;13.30;;;;;;;5.68;98.46;99288.11;79807;1294;3011786;-72
2023/12/20 07:51:44;;;;;;;19.20;9.80;;;;;;;5.60;99.14;99295.73;78567;1295;3026051;-72
2023/12/20 07:54:10;;;;;;;15.70;9.60;;;;;;;5.58;99.80;99289.03;80038;1294;3013372;-71
2023/12/20 07:56:39;;;;;;;18.60;10.70;;;;;;;6.00;98.79;99280.48;79796;1293;3011461;-72
2023/12/20 08:02:05;;;;;;;28.70;12.70;;;;;;;5.98;97.06;99282.45;80432;1296;3013120;-71
2023/12/20 08:04:32;;;;;;;27.90;15.10;;;;;;;5.54;98.96;99282.45;79492;1298;3012794;-71
2023/12/20 08:07:00;;;;;;;23.40;12.50;;;;;;;5.42;99.85;99278.23;79390;1298;3011640;-71
2023/12/20 08:09:28;;;;;;;28.30;13.80;;;;;;;5.65;100.00;99273.09;78230;1304;3052641;-71
2023/12/20 08:11:54;;;;;;;38.40;17.20;;;;;;;5.88;99.37;99262.90;79535;1303;3013175;-73
2023/12/20 08:14:21;;;;;;;53.40;22.90;;;;;;;5.68;99.75;99267.95;79260;1298;3011729;-71
2023/12/20 08:16:49;;;;;;;84.50;28.70;;;;;;;5.59;99.97;99263.48;78439;1299;3026262;-66
2023/12/20 08:19:15;;;;;;;39.20;17.30;;;;;;;5.51;100.00;99268.15;79703;1295;3013262;-70
2023/12/20 08:21:42;;;;;;;26.20;13.70;;;;;;;5.69;99.90;99259.39;79626;1300;3011757;-68
2023/12/20 08:24:10;;;;;;;22.70;11.80;;;;;;;5.90;99.00;99266.64;78715;1299;3025503;-72
2023/12/20 08:26:37;;;;;;;52.80;19.70;;;;;;;5.80;99.62;99252.84;79719;1299;3013241;-69
2023/12/20 08:29:03;;;;;;;83.00;25.90;;;;;;;5.72;99.95;99254.40;79907;1300;3011754;-66
2023/12/20 08:31:31;;;;;;;39.00;16.20;;;;;;;5.69;100.00;99246.04;78526;1296;3024958;-73
2023/12/20 08:33:58;;;;;;;25.90;12.70;;;;;;;5.79;100.00;99248.16;79896;1294;3013438;-69
2023/12/20 08:36:25;;;;;;;27.50;13.80;;;;;;;5.92;99.49;99239.94;79707;1295;3012835;-69
2023/12/20 08:38:53;;;;;;;23.40;11.70;;;;;;;5.85;99.53;99242.66;78515;1301;3051616;-67
2023/12/20 08:41:20;;;;;;;28.50;15.30;;;;;;;5.70;99.77;99230.31;79473;1299;3018210;-67
2023/12/20 08:43:47;;;;;;;22.50;11.60;;;;;;;5.68;100.00;99223.42;79622;1296;3011687;-66
2023/12/20 08:46:15;;;;;;;22.80;12.90;;;;;;;5.81;100.00;99215.92;78285;1295;3026182;-75
2023/12/20 08:48:42;;;;;;;18.10;10.90;;;;;;;5.97;99.96;99212.78;79808;1300;3019054;-74
2023/12/20 08:51:09;;;;;;;17.50;10.30;;;;;;;5.96;99.69;99219.08;79541;1299;3013161;-74
2023/12/20 08:53:37;;;;;;;19.30;10.80;;;;;;;5.91;98.97;99208.89;78129;1301;3028482;-75
2023/12/20 08:56:04;;;;;;;12.50;7.80;;;;;;;5.78;99.73;99208.08;79643;1295;3014205;-75
2023/12/20 08:58:31;;;;;;;13.10;8.00;;;;;;;5.75;99.09;99206.31;79604;1294;3013119;-72
2023/12/20 09:00:59;;;;;;;14.90;9.00;;;;;;;5.98;98.97;99202.49;78321;1296;3048390;-73
2023/12/20 09:03:26;;;;;;;13.30;8.20;;;;;;;6.14;97.48;99194.61;79603;1300;3012863;-71
2023/12/20 09:05:52;;;;;;;17.40;9.70;;;;;;;6.13;97.47;99195.02;79493;1294;3011791;-73
2023/12/20 09:08:20;;;;;;;18.60;9.90;;;;;;;5.98;97.87;99199.53;78282;1295;3026433;-67
2023/12/20 09:10:47;;;;;;;16.10;8.50;;;;;;;5.91;98.72;99192.89;79509;1295;3013688;-68
2023/12/20 09:13:13;;;;;;;14.80;8.90;;;;;;;5.85;98.83;99185.31;79591;1300;3012735;-66
2023/12/20 09:15:41;;;;;;;17.70;9.20;;;;;;;6.26;97.53;99186.44;78538;1299;3029192;-74
2023/12/20 09:18:08;;;;;;;14.70;8.70;;;;;;;6.14;96.87;99193.77;79561;1298;3011930;-75
2023/12/20 09:20:35;;;;;;;18.50;9.70;;;;;;;6.03;97.58;99183.48;79539;1299;3011721;-74
2023/12/20 09:23:04;;;;;;;15.70;9.30;;;;;;;5.93;97.45;99179.73;78391;1300;3026152;-74
2023/12/20 09:25:30;;;;;;;13.10;8.20;;;;;;;5.92;98.04;99190.21;79646;1300;3013555;-75
2023/12/20 09:27:57;;;;;;;14.00;8.10;;;;;;;6.37;96.37;99180.13;79630;1300;3011610;-74
2023/12/20 09:30:25;;;;;;;16.90;8.10;;;;;;;6.50;94.62;99159.02;78447;1298;3047095;-75
2023/12/20 09:32:52;;;;;;;18.60;8.80;;;;;;;6.19;95.94;99165.36;79546;1301;3012981;-68
2023/12/20 09:35:19;;;;;;;14.80;8.30;;;;;;;6.06;96.74;99161.29;79528;1301;3011787;-68
2023/12/20 09:37:47;;;;;;;14.50;9.30;;;;;;;6.15;96.76;99160.52;78347;1300;3026250;-67
2023/12/20 09:40:13;;;;;;;12.80;8.20;;;;;;;6.04;97.23;99151.45;79851;1299;3012726;-67
2023/12/20 09:42:49;;;;;;;13.20;8.00;;;;;;;6.32;96.73;99155.89;79576;1298;3013507;-67
2023/12/20 09:45:17;;;;;;;15.00;8.70;;;;;;;6.39;95.57;99144.06;78308;1297;3048142;-67
2023/12/20 09:47:44;;;;;;;14.70;9.10;;;;;;;6.46;95.41;99149.14;79523;1298;3013116;-67
2023/12/20 09:50:11;;;;;;;14.00;9.10;;;;;;;6.40;95.18;99141.05;79517;1301;3013496;-68
2023/12/20 09:52:39;;;;;;;21.30;9.70;;;;;;;6.31;95.72;99143.92;78131;1305;3028271;-70
2023/12/20 09:55:07;;;;;;;27.00;11.50;;;;;;;6.17;96.44;99126.67;79840;1296;3013389;-68
2023/12/20 09:57:33;;;;;;;24.90;11.40;;;;;;;6.58;95.06;99123.83;79509;1296;3011980;-68
2023/12/20 10:00:02;;;;;;;22.40;10.30;;;;;;;6.70;93.57;99113.45;78321;1295;3049800;-68
2023/12/20 10:02:58;;;;;;;14.10;8.10;;;;;;;6.78;93.39;99102.27;78258;1301;3053980;-68
2023/12/20 10:05:32;;;;;;;15.50;8.70;;;;;;;6.75;92.98;99090.23;78376;1301;3050136;-77
2023/12/20 10:08:00;;;;;;;14.40;8.60;;;;;;;6.53;93.45;99095.52;79499;1296;3011605;-67
2023/12/20 10:10:28;;;;;;;14.60;7.20;;;;;;;6.48;94.68;99086.18;78265;1304;3051560;-67
2023/12/20 10:13:05;;;;;;;15.10;7.80;;;;;;;6.80;93.19;99086.00;79540;1301;3013466;-67
2023/12/20 10:15:33;;;;;;;12.00;8.00;;;;;;;6.78;93.11;99097.26;78435;1300;3055905;-67
2023/12/20 10:18:01;;;;;;;13.90;8.80;;;;;;;6.87;92.55;99095.55;79484;1300;3019007;-67
2023/12/20 10:20:29;;;;;;;15.80;9.10;;;;;;;6.82;92.41;99099.63;79450;1301;3011966;-67
2023/12/20 10:23:00;;;;;;;12.50;8.50;;;;;;;6.63;93.10;99099.55;78402;1300;3052743;-66
2023/12/20 10:25:27;;;;;;;17.30;8.50;;;;;;;6.51;93.47;99088.48;79341;1300;3012813;-64
2023/12/20 10:28:10;;;;;;;16.90;9.00;;;;;;;6.38;94.53;99090.52;79195;1298;3011986;-65
2023/12/20 10:30:38;;;;;;;25.50;11.40;;;;;;;6.74;93.38;99088.21;78427;1295;3052099;-66
2023/12/20 10:33:08;;;;;;;34.40;13.40;;;;;;;6.80;92.63;99096.08;79972;1299;3013464;-65
2023/12/20 10:35:37;;;;;;;39.30;14.30;;;;;;;6.85;92.22;99095.15;78514;1298;3052779;-76
2023/12/20 10:38:05;;;;;;;31.50;13.40;;;;;;;6.76;91.98;99097.14;79605;1299;3013228;-74
2023/12/20 10:40:36;;;;;;;33.80;13.60;;;;;;;6.55;92.85;99109.67;79652;1298;3011524;-74
2023/12/20 10:43:04;;;;;;;33.50;12.50;;;;;;;6.47;93.96;99100.20;78298;1299;3068684;-68
2023/12/20 10:45:31;;;;;;;21.70;10.20;;;;;;;7.04;93.34;99095.90;79666;1296;3012975;-72
2023/12/20 10:48:01;;;;;;;27.00;10.90;;;;;;;7.34;90.06;99097.48;79732;1296;3011608;-72
2023/12/20 10:50:29;;;;;;;27.10;10.40;;;;;;;6.97;90.87;99086.87;78409;1304;3051831;-72
2023/12/20 10:52:56;;;;;;;31.10;12.20;;;;;;;6.86;91.41;99095.42;79723;1298;3013142;-71
2023/12/20 10:55:23;;;;;;;34.70;13.10;;;;;;;6.78;92.00;99073.55;79653;1299;3011615;-69
2023/12/20 10:57:52;;;;;;;31.30;12.20;;;;;;;6.37;93.39;99082.91;78363;1296;3069882;-70
2023/12/20 11:00:19;;;;;;;41.00;12.00;;;;;;;6.59;94.14;99063.04;79545;1299;3012861;-73
2023/12/20 11:02:46;;;;;;;20.20;9.60;;;;;;;6.87;92.23;99066.66;79637;1299;3011836;-73
2023/12/20 11:05:14;;;;;;;38.00;13.00;;;;;;;6.84;92.18;99066.12;78326;1302;3052688;-72
2023/12/20 11:07:44;;;;;;;31.50;11.70;;;;;;;6.76;92.50;99051.92;79670;1300;3013599;-73
2023/12/20 11:10:16;;;;;;;24.30;11.50;;;;;;;6.67;92.92;99053.23;79137;1298;3013258;-73
2023/12/20 11:12:54;;;;;;;18.90;8.00;;;;;;;6.60;93.66;99052.36;79599;1298;3011585;-72
2023/12/20 11:15:24;;;;;;;18.50;7.90;;;;;;;6.85;92.41;99062.58;78410;1295;3069148;-67
2023/12/20 11:17:56;;;;;;;17.60;9.20;;;;;;;7.08;91.13;99054.57;79739;1299;3011740;-72